Time;durP1;ratioP1;P1;durP2;ratioP2;P2;SDS_P1;SDS_P2;PMS_P1;PMS_P2;Temp;Humidity;BMP_temperature;BMP_pressure;BME280_temperature;BME280_humidity;BME280_pressure;Samples;Min_cycle;Max_cycle;Signal;HPM_P1;HPM_P2
2021/11/12 00:11:48;;;;;;;;;21.50;21.50;;;;;20.92;38.15;101814.06;4973141;28;51101;-54
2021/11/12 00:13:23;;;;;;;;;26.00;23.00;;;;;20.86;38.12;101828.66;4972713;28;51357;-53
2021/11/12 00:15:52;;;;;;;;;22.25;22.25;;;;;20.83;38.34;101815.25;4972374;28;51339;-54
2021/11/12 00:18:23;;;;;;;;;24.50;22.75;;;;;20.83;38.06;101820.78;4964203;28;51065;-53
2021/11/12 00:20:51;;;;;;;;;25.25;22.75;;;;;20.80;38.49;101826.69;4953605;28;51177;-54
2021/11/12 00:23:18;;;;;;;;;23.25;22.25;;;;;20.78;38.45;101821.38;4970268;28;51584;-53
2021/11/12 00:25:45;;;;;;;;;24.50;22.50;;;;;20.76;38.19;101818.00;4973007;28;51180;-53
2021/11/12 00:28:12;;;;;;;;;25.75;21.50;;;;;20.75;38.30;101825.41;4978488;28;51408;-54
2021/11/12 00:30:52;;;;;;;;;21.00;20.00;;;;;20.73;38.51;101821.13;4954080;28;52834;-54
2021/11/12 00:39:02;;;;;;;;;20.50;18.75;;;;;20.68;38.65;101805.22;4973568;28;51699;-52
2021/11/12 00:41:38;;;;;;;;;22.50;20.50;;;;;20.66;38.40;101804.56;4971503;28;52074;-53
2021/11/12 00:46:54;;;;;;;;;20.75;17.75;;;;;20.63;38.48;101799.44;4967127;28;51153;-53
2021/11/12 00:49:23;;;;;;;;;26.25;21.25;;;;;20.61;38.43;101808.97;4972335;28;51430;-53
2021/11/12 00:51:51;;;;;;;;;23.00;21.25;;;;;20.59;38.68;101806.41;4982088;28;53738;-54
2021/11/12 00:54:18;;;;;;;;;21.50;20.50;;;;;20.58;38.37;101807.47;4960194;28;51636;-53
2021/11/12 00:56:44;;;;;;;;;24.00;20.50;;;;;20.57;38.55;101800.25;4967170;28;51184;-54
2021/11/12 00:59:10;;;;;;;;;19.50;19.50;;;;;20.56;38.29;101797.72;4953860;28;51054;-52
2021/11/12 01:01:38;;;;;;;;;25.25;22.75;;;;;20.55;38.47;101790.50;4953568;28;51834;-54
2021/11/12 01:04:09;;;;;;;;;23.25;18.50;;;;;20.53;38.66;101807.22;4953965;28;51167;-54
2021/11/12 01:06:35;;;;;;;;;22.00;21.50;;;;;20.53;38.18;101806.34;4955527;28;51197;-53
2021/11/12 01:09:04;;;;;;;;;23.00;21.00;;;;;20.51;38.38;101803.81;4970767;28;51383;-54
2021/11/12 01:11:30;;;;;;;;;25.00;21.00;;;;;20.50;38.67;101802.09;4971912;28;51883;-54
2021/11/12 01:13:55;;;;;;;;;21.00;20.25;;;;;20.48;38.66;101804.22;4972758;28;51145;-53
2021/11/12 01:16:22;;;;;;;;;23.75;20.00;;;;;20.48;38.80;101798.69;4963973;28;51152;-53
2021/11/12 01:18:48;;;;;;;;;18.50;17.00;;;;;20.46;38.58;101793.41;4966499;28;51190;-53
2021/11/12 01:21:16;;;;;;;;;22.25;19.00;;;;;20.45;38.78;101782.59;4971407;28;51200;-53
2021/11/12 01:23:45;;;;;;;;;19.75;19.25;;;;;20.43;38.68;101780.06;4971437;28;51432;-54
2021/11/12 01:26:11;;;;;;;;;24.00;22.50;;;;;20.43;38.85;101784.72;4972935;28;51288;-54
2021/11/12 01:28:37;;;;;;;;;20.75;20.00;;;;;20.42;38.49;101774.69;4955961;28;51201;-54
2021/11/12 01:31:02;;;;;;;;;23.25;18.25;;;;;20.41;38.57;101781.25;4953306;28;52012;-53
2021/11/12 01:33:28;;;;;;;;;19.50;18.75;;;;;20.41;38.95;101781.25;4961680;28;50983;-53
2021/11/12 01:35:57;;;;;;;;;21.25;20.50;;;;;20.38;38.78;101777.00;4957064;28;51029;-53
2021/11/12 01:38:23;;;;;;;;;18.50;17.50;;;;;20.37;38.74;101780.81;4957675;28;51269;-53
2021/11/12 01:40:49;;;;;;;;;25.50;20.75;;;;;20.37;38.81;101771.69;4953060;28;51066;-53
2021/11/12 01:43:20;;;;;;;;;23.00;19.00;;;;;20.35;38.84;101771.91;4955293;27;51240;-54
2021/11/12 01:53:37;;;;;;;;;18.00;16.50;;;;;20.32;38.65;101777.81;4952883;28;51124;-51
2021/11/12 02:01:34;;;;;;;;;19.00;17.25;;;;;20.28;38.91;101757.22;4960182;28;51848;-53
2021/11/12 02:04:00;;;;;;;;;25.25;20.25;;;;;20.27;39.01;101761.03;4967659;28;52025;-53
2021/11/12 02:06:26;;;;;;;;;17.25;16.00;;;;;20.26;39.12;101751.09;4972041;28;51160;-53
2021/11/12 02:08:53;;;;;;;;;17.50;16.00;;;;;20.26;38.88;101755.72;4970240;28;51085;-53
2021/11/12 02:11:19;;;;;;;;;20.00;17.75;;;;;20.25;38.79;101745.78;4969580;28;52414;-54
2021/11/12 02:13:46;;;;;;;;;21.50;18.50;;;;;20.23;38.81;101745.97;4961258;28;51536;-51
2021/11/12 02:16:19;;;;;;;;;24.00;20.00;;;;;20.23;39.04;101742.38;4968761;28;51233;-53
2021/11/12 02:18:45;;;;;;;;;24.00;19.75;;;;;20.22;38.98;101746.16;4957324;28;51039;-52
2021/11/12 02:21:21;;;;;;;;;17.75;16.25;;;;;20.20;39.02;101740.84;4952187;28;51262;-53
2021/11/12 02:26:27;;;;;;;;;21.50;20.50;;;;;20.18;39.00;101729.22;4965452;28;51051;-51
2021/11/12 02:28:54;;;;;;;;;19.25;19.00;;;;;20.18;39.23;101735.56;4956430;28;50960;-53
2021/11/12 02:31:22;;;;;;;;;19.00;15.75;;;;;20.17;38.90;101733.00;4956754;28;52707;-53
2021/11/12 02:33:47;;;;;;;;;22.75;17.00;;;;;20.15;38.89;101730.47;4960171;28;51280;-53
2021/11/12 02:36:16;;;;;;;;;21.50;18.50;;;;;20.14;38.90;101736.16;4966351;28;51124;-51
2021/11/12 02:38:50;;;;;;;;;19.00;15.75;;;;;20.14;38.82;101733.41;4972844;28;51139;-52
2021/11/12 02:41:16;;;;;;;;;23.50;17.50;;;;;20.12;39.19;101728.13;4964499;28;50938;-54
2021/11/12 02:43:44;;;;;;;;;21.00;17.75;;;;;20.12;39.24;101727.28;4959205;28;51208;-53
2021/11/12 02:46:12;;;;;;;;;17.50;15.75;;;;;20.10;38.68;101734.84;4969802;28;51165;-52
2021/11/12 02:48:40;;;;;;;;;19.25;17.25;;;;;20.09;38.82;101730.41;4963162;28;51258;-53
2021/11/12 02:51:09;;;;;;;;;17.50;16.75;;;;;20.09;38.98;101724.91;4955163;28;51765;-53
2021/11/12 02:53:34;;;;;;;;;19.00;15.50;;;;;20.06;39.10;101728.91;4959368;28;51549;-54
2021/11/12 02:56:06;;;;;;;;;22.50;17.25;;;;;20.07;39.20;101733.34;4958326;27;51303;-50
2021/11/12 02:58:32;;;;;;;;;17.25;17.00;;;;;20.06;39.04;101728.91;4974887;28;50990;-48
2021/11/12 03:00:58;;;;;;;;;20.50;17.50;;;;;20.05;39.40;101724.44;4961474;28;52814;-54
2021/11/12 03:03:24;;;;;;;;;15.25;15.25;;;;;20.04;39.13;101724.66;4965451;28;51258;-54
2021/11/12 03:05:49;;;;;;;;;18.75;18.50;;;;;20.03;38.88;101717.47;4973966;28;51168;-52
2021/11/12 03:08:15;;;;;;;;;27.75;21.00;;;;;20.02;39.06;101719.34;4958534;28;51043;-52
2021/11/12 03:10:40;;;;;;;;;17.50;16.25;;;;;20.02;38.94;101724.84;4961368;28;51093;-51
2021/11/12 03:13:07;;;;;;;;;18.25;15.25;;;;;20.02;38.91;101730.34;4968998;28;51168;-53
2021/11/12 03:15:34;;;;;;;;;20.25;15.50;;;;;20.01;39.21;101722.28;4962800;28;51181;-54
2021/11/12 03:18:00;;;;;;;;;23.75;16.75;;;;;20.00;39.40;101724.19;4955618;28;51104;-53
2021/11/12 03:20:28;;;;;;;;;23.00;19.00;;;;;20.00;38.92;101726.09;4963238;28;52771;-52
2021/11/12 03:23:17;;;;;;;;;23.75;18.50;;;;;19.98;39.06;101722.69;4956196;28;50957;-53
2021/11/12 03:25:53;;;;;;;;;19.75;16.75;;;;;19.97;39.03;101721.84;4970211;28;51064;-53
2021/11/12 03:28:47;;;;;;;;;19.00;15.25;;;;;19.96;39.07;101722.88;4994611;27;51063;-53
2021/11/12 05:09:45;;;;;;;;;14.00;13.00;;;;;19.60;39.27;101622.13;4964496;28;51515;-53
2021/11/12 05:11:28;;;;;;;;;12.00;11.75;;;;;19.60;39.14;101610.28;4968357;28;51471;-54
2021/11/12 05:56:47;;;;;;;;;11.75;9.50;;;;;19.44;39.22;101575.63;4955449;28;51101;-53
2021/11/12 05:59:15;;;;;;;;;11.00;10.25;;;;;19.44;39.32;101569.28;4966264;28;51150;-54
2021/11/12 06:01:41;;;;;;;;;13.25;11.75;;;;;19.43;39.41;101564.84;4971453;28;51275;-54
2021/11/12 06:04:07;;;;;;;;;10.25;10.25;;;;;19.44;39.13;101558.31;4971849;28;51375;-53
2021/11/12 06:06:33;;;;;;;;;12.25;11.00;;;;;19.42;39.25;101566.75;4964215;28;51211;-52
2021/11/12 06:08:59;;;;;;;;;13.00;12.00;;;;;19.42;39.24;101566.75;4968225;28;51374;-52
2021/11/12 06:11:27;;;;;;;;;13.75;11.50;;;;;19.41;39.29;101567.81;4973999;28;52722;-52
2021/11/12 06:13:53;;;;;;;;;9.50;9.50;;;;;19.40;39.18;101571.59;4958620;28;51508;-54
2021/11/12 06:16:19;;;;;;;;;13.25;13.25;;;;;19.39;38.72;101569.91;4969400;28;51046;-53
2021/11/12 06:18:44;;;;;;;;;14.75;14.75;;;;;19.38;38.06;101567.31;4972545;28;52021;-50
2021/11/12 06:21:11;;;;;;;;;15.25;15.25;;;;;19.35;37.27;101567.72;4965095;28;52286;-53
2021/11/12 06:23:37;;;;;;;;;17.00;15.75;;;;;19.30;37.21;101562.84;4962257;28;50967;-53
2021/11/12 06:26:03;;;;;;;;;22.50;18.75;;;;;19.27;36.81;101568.72;4959925;28;51168;-52
2021/11/12 06:28:29;;;;;;;;;18.25;16.00;;;;;19.21;36.42;101561.28;4965505;28;51030;-50
2021/11/12 06:30:56;;;;;;;;;19.00;16.00;;;;;19.16;36.28;101556.34;4956817;28;51021;-52
2021/11/12 06:33:22;;;;;;;;;19.50;18.00;;;;;19.11;35.97;101566.25;4958913;28;51336;-53
2021/11/12 06:35:47;;;;;;;;;19.75;17.00;;;;;19.05;35.93;101554.13;4959217;28;51137;-53
2021/11/12 06:38:15;;;;;;;;;24.50;21.75;;;;;19.00;35.75;101573.94;4957503;28;51066;-53
2021/11/12 06:40:40;;;;;;;;;19.75;15.75;;;;;18.95;35.67;101576.41;4959470;28;51812;-53
2021/11/12 06:43:21;;;;;;;;;21.25;16.25;;;;;18.91;35.74;101574.25;4965274;28;51490;-55
2021/11/12 06:51:18;;;;;;;;;21.25;16.00;;;;;18.80;35.97;101561.91;4960479;28;51350;-52
2021/11/12 06:53:43;;;;;;;;;17.50;15.75;;;;;18.84;35.78;101560.44;4956778;28;51344;-48
2021/11/12 06:56:08;;;;;;;;;16.00;13.25;;;;;18.90;35.84;101543.22;4968080;28;51111;-51
2021/11/12 06:58:37;;;;;;;;;14.75;13.00;;;;;18.97;36.12;101541.41;4975025;28;51235;-52
2021/11/12 07:01:03;;;;;;;;;12.75;10.50;;;;;19.03;36.07;101539.75;4976796;28;52992;-53
2021/11/12 07:03:30;;;;;;;;;14.00;13.00;;;;;19.12;36.06;101545.97;4955928;28;51386;-54
2021/11/12 07:05:56;;;;;;;;;9.50;8.00;;;;;19.21;36.57;101553.03;4956305;28;51025;-54
2021/11/12 07:08:21;;;;;;;;;13.00;10.00;;;;;19.27;36.47;101549.47;4956084;28;51180;-52
2021/11/12 07:10:47;;;;;;;;;10.00;10.00;;;;;19.35;36.70;101554.00;4963768;28;51801;-51
2021/11/12 07:13:13;;;;;;;;;9.25;9.25;;;;;19.43;37.06;101551.13;4961685;28;51171;-52
2021/11/12 07:15:39;;;;;;;;;7.50;7.50;;;;;19.50;36.79;101560.28;4958769;28;51487;-53
2021/11/12 07:18:04;;;;;;;;;8.00;7.00;;;;;19.57;36.99;101570.28;4959780;28;51223;-51
2021/11/12 07:20:30;;;;;;;;;10.50;8.25;;;;;19.65;37.18;101566.53;4961657;28;51256;-53
2021/11/12 07:22:55;;;;;;;;;8.75;7.75;;;;;19.74;36.96;101559.00;4962071;28;51148;-53
2021/11/12 07:25:21;;;;;;;;;9.00;6.75;;;;;19.81;37.47;101554.41;4961467;28;51093;-52
2021/11/12 07:27:48;;;;;;;;;9.75;9.00;;;;;19.88;37.22;101552.53;4960870;28;51119;-53
2021/11/12 07:30:15;;;;;;;;;8.25;8.25;;;;;19.96;37.14;101548.78;4968458;28;52274;-52
2021/11/12 07:32:44;;;;;;;;;7.25;6.00;;;;;20.03;37.62;101536.78;4972814;28;51413;-53
2021/11/12 07:35:11;;;;;;;;;7.75;7.75;;;;;20.09;37.50;101535.97;4968372;28;51266;-53
2021/11/12 07:37:37;;;;;;;;;12.25;9.75;;;;;20.15;37.59;101540.66;4964014;28;51208;-49
2021/11/12 07:40:05;;;;;;;;;8.00;8.00;;;;;20.23;37.57;101541.56;4968858;28;53426;-51
2021/11/12 07:43:05;;;;;;;;;9.75;6.00;;;;;20.28;38.08;101534.38;4956203;28;52261;-51
2021/11/12 07:47:45;;;;;;;;;7.50;7.00;;;;;20.40;37.71;101537.38;4965692;28;51290;-52
2021/11/12 07:50:12;;;;;;;;;12.50;9.00;;;;;20.45;37.91;101530.25;4954691;28;51969;-57
2021/11/12 07:52:38;;;;;;;;;10.75;9.75;;;;;20.51;37.55;101514.81;4970118;28;51162;-51
2021/11/12 07:55:06;;;;;;;;;8.50;8.00;;;;;20.56;37.81;101515.03;4957864;28;51682;-51
2021/11/12 07:57:31;;;;;;;;;11.75;10.25;;;;;20.61;37.24;101518.00;4956157;28;51075;-49
2021/11/12 07:59:57;;;;;;;;;6.75;6.75;;;;;20.68;37.42;101510.63;4954851;28;51696;-51
2021/11/12 08:02:24;;;;;;;;;9.75;8.50;;;;;20.71;37.48;101510.22;4958415;28;51443;-47
2021/11/12 08:04:55;;;;;;;;;9.75;7.75;;;;;20.69;37.38;101508.72;4956884;28;51201;-53
2021/11/12 08:07:23;;;;;;;;;10.25;8.25;;;;;20.66;37.46;101526.53;4953930;28;51116;-48
2021/11/12 08:09:53;;;;;;;;;10.00;8.50;;;;;20.62;36.94;101555.50;4963382;28;52805;-50
2021/11/12 08:12:22;;;;;;;;;8.50;7.75;;;;;20.57;37.20;101566.28;4962574;28;51095;-48
2021/11/12 08:15:36;;;;;;;;;10.00;10.00;;;;;20.51;37.52;101567.09;4958077;28;51360;-52
2021/11/12 08:17:54;;;;;;;;;8.00;8.00;;;;;20.46;37.40;101575.97;4970352;28;52702;-50
2021/11/12 08:20:37;;;;;;;;;8.75;8.75;;;;;20.41;37.46;101572.09;4960146;28;52824;-49
2021/11/12 08:23:11;;;;;;;;;13.50;9.50;;;;;20.37;37.08;101554.31;4953929;28;51119;-50
2021/11/12 08:25:42;;;;;;;;;11.00;9.00;;;;;20.33;37.24;101542.03;4955464;28;51099;-52
2021/11/12 08:28:30;;;;;;;;;12.00;8.50;;;;;20.29;37.14;101540.72;4972281;27;52268;-51
2021/11/12 08:31:05;;;;;;;;;12.25;11.00;;;;;20.23;37.65;101544.31;4963719;28;51736;-51
2021/11/12 08:33:42;;;;;;;;;8.25;8.25;;;;;20.22;37.48;101539.81;4957650;28;51440;-50
2021/11/12 08:36:22;;;;;;;;;10.75;9.75;;;;;20.17;37.61;101549.56;4966300;28;51120;-50
2021/11/12 08:39:03;;;;;;;;;7.50;6.75;;;;;20.13;37.35;101552.94;4962970;28;51256;-48
2021/11/12 08:41:36;;;;;;;;;8.75;7.75;;;;;20.10;37.47;101548.66;4953189;28;51649;-51
2021/11/12 08:44:10;;;;;;;;;8.25;8.25;;;;;20.07;37.40;101550.97;4967849;28;51107;-51
2021/11/12 08:46:51;;;;;;;;;10.00;9.75;;;;;20.03;37.42;101545.03;4961913;28;51002;-49
2021/11/12 08:49:22;;;;;;;;;7.00;7.00;;;;;20.01;37.42;101544.41;4960984;28;51175;-51
2021/11/12 08:51:48;;;;;;;;;10.25;8.00;;;;;19.99;37.76;101551.97;4955218;28;52734;-48
2021/11/12 08:54:13;;;;;;;;;6.25;5.50;;;;;19.98;37.85;101554.94;4966104;28;51086;-47
2021/11/12 08:56:39;;;;;;;;;9.75;9.75;;;;;20.01;37.51;101535.25;4956455;28;51099;-51
2021/11/12 08:59:05;;;;;;;;;11.00;8.25;;;;;20.06;37.82;101528.13;4958918;28;51153;-51
2021/11/12 09:01:32;;;;;;;;;9.00;6.00;;;;;20.13;37.76;101519.91;4949185;28;52136;-50
2021/11/12 09:03:58;;;;;;;;;8.25;7.25;;;;;20.21;37.69;101527.97;4953575;28;51477;-52
2021/11/12 09:06:25;;;;;;;;;13.75;12.50;;;;;20.29;37.26;101540.72;4949189;28;53023;-51
2021/11/12 09:08:50;;;;;;;;;9.00;9.00;;;;;20.35;37.18;101549.00;4954396;28;51197;-51
2021/11/12 09:11:17;;;;;;;;;11.00;8.75;;;;;20.43;37.53;101550.78;4954276;28;51754;-51
2021/11/12 09:13:47;;;;;;;;;11.25;10.00;;;;;20.50;37.45;101548.88;4953110;28;51399;-52
2021/11/12 09:16:15;;;;;;;;;7.25;7.25;;;;;20.57;37.18;101554.44;4956502;28;51098;-52
2021/11/12 09:18:44;;;;;;;;;8.00;8.00;;;;;20.65;37.65;101551.50;4955791;28;51178;-53
2021/11/12 09:21:11;;;;;;;;;12.50;9.00;;;;;20.70;36.91;101549.81;4954627;28;51663;-55
2021/11/12 09:23:36;;;;;;;;;9.25;9.00;;;;;20.77;37.29;101543.50;4952027;28;51445;-50
2021/11/12 09:26:03;;;;;;;;;8.50;6.50;;;;;20.82;37.08;101530.78;4955920;28;51120;-48
2021/11/12 09:28:32;;;;;;;;;11.25;9.75;;;;;20.89;36.88;101526.16;4952561;28;51521;-49
2021/11/12 09:30:58;;;;;;;;;10.00;7.50;;;;;20.94;36.52;101522.75;4957790;28;51070;-50
2021/11/12 09:33:23;;;;;;;;;12.00;10.00;;;;;21.00;36.81;101527.44;4961666;28;51021;-47
2021/11/12 09:35:49;;;;;;;;;6.25;6.00;;;;;21.06;36.78;101514.75;4958974;28;52337;-48
2021/11/12 09:38:15;;;;;;;;;8.25;7.50;;;;;21.11;36.96;101515.78;4958237;28;52544;-50
2021/11/12 09:40:40;;;;;;;;;5.00;4.25;;;;;21.17;36.88;101520.47;4956867;28;51791;-51
2021/11/12 09:43:05;;;;;;;;;8.25;8.00;;;;;21.22;36.51;101520.69;4961923;28;51842;-50
2021/11/12 09:45:31;;;;;;;;;8.25;8.25;;;;;21.26;36.34;101519.25;4958810;28;51324;-52
2021/11/12 09:47:57;;;;;;;;;8.25;7.25;;;;;21.31;36.46;101527.72;4956133;28;51013;-50
2021/11/12 09:50:28;;;;;;;;;11.75;11.75;;;;;21.32;36.60;101523.03;4958017;28;51749;-50
2021/11/12 09:52:54;;;;;;;;;9.75;9.50;;;;;21.30;36.24;101517.75;4964157;28;51153;-52
2021/11/12 09:55:20;;;;;;;;;7.25;7.25;;;;;21.29;36.48;101513.31;4959204;28;51319;-52
2021/11/12 09:57:47;;;;;;;;;7.00;7.00;;;;;21.28;36.71;101489.56;4958126;28;51506;-52
2021/11/12 10:00:17;;;;;;;;;7.75;7.50;;;;;21.27;36.18;101479.59;4957842;28;52406;-52
2021/11/12 10:02:45;;;;;;;;;8.75;8.75;;;;;21.30;36.23;101456.28;4961727;28;51606;-48
2021/11/12 10:05:13;;;;;;;;;9.75;7.25;;;;;21.36;36.74;101457.31;4955903;28;51232;-52
2021/11/12 10:07:39;;;;;;;;;13.00;10.25;;;;;21.41;36.26;101461.16;4953821;28;51216;-50
2021/11/12 10:10:07;;;;;;;;;11.75;8.00;;;;;21.49;36.15;101473.88;4954069;28;51180;-52
2021/11/12 10:12:37;;;;;;;;;8.25;7.50;;;;;21.55;36.12;101473.84;4953295;28;51151;-52
2021/11/12 10:15:19;;;;;;;;;10.75;10.25;;;;;21.63;36.08;101471.94;4961389;28;51370;-51
2021/11/12 10:17:46;;;;;;;;;10.75;7.25;;;;;21.68;36.48;101458.34;4959072;28;51167;-50
2021/11/12 10:20:22;;;;;;;;;11.50;9.50;;;;;21.68;35.98;101470.22;4959861;28;51933;-52
2021/11/12 10:22:51;;;;;;;;;8.75;8.50;;;;;21.69;35.96;101473.84;4962143;28;51527;-52
2021/11/12 10:25:17;;;;;;;;;12.50;11.25;;;;;21.64;36.19;101474.47;4962580;28;52187;-52
2021/11/12 10:27:50;;;;;;;;;10.00;9.25;;;;;21.63;35.94;101472.78;4956915;28;51778;-52
2021/11/12 10:30:25;;;;;;;;;7.50;7.25;;;;;21.63;36.10;101466.41;4961000;28;52037;-53
2021/11/12 10:32:55;;;;;;;;;10.00;10.00;;;;;21.65;36.07;101456.84;4960390;28;51677;-49
2021/11/12 10:35:20;;;;;;;;;7.75;7.00;;;;;21.69;36.41;101460.06;4957442;28;51117;-50
2021/11/12 10:37:45;;;;;;;;;13.25;11.00;;;;;21.74;35.90;101449.19;4959416;28;51256;-48
2021/11/12 10:40:22;;;;;;;;;11.50;9.25;;;;;21.79;35.75;101450.25;4961485;28;51122;-46
2021/11/12 10:42:53;;;;;;;;;14.50;11.00;;;;;21.85;35.84;101471.44;4962229;28;51870;-50
2021/11/12 10:45:31;;;;;;;;;9.50;8.50;;;;;21.91;35.75;101486.28;4960707;28;51159;-51
2021/11/12 10:47:57;;;;;;;;;12.50;9.00;;;;;21.94;35.83;101477.56;4966629;28;51121;-51
2021/11/12 10:50:26;;;;;;;;;11.50;11.50;;;;;21.94;36.04;101472.06;4969807;28;52029;-48
2021/11/12 10:52:55;;;;;;;;;12.75;11.00;;;;;21.91;36.40;101447.69;4970438;28;51527;-47
2021/11/12 10:55:23;;;;;;;;;13.25;11.25;;;;;21.88;35.85;101432.41;4962084;28;52227;-50
2021/11/12 10:57:56;;;;;;;;;15.00;11.25;;;;;21.85;36.58;101421.78;4960620;28;51300;-51
2021/11/12 11:00:29;;;;;;;;;11.25;10.75;;;;;21.82;36.29;101408.44;4953872;28;52836;-52
2021/11/12 11:02:59;;;;;;;;;12.00;11.50;;;;;21.79;36.67;101402.53;4956211;28;51516;-49
2021/11/12 11:05:33;;;;;;;;;13.25;12.50;;;;;21.75;36.64;101407.63;4959453;28;51126;-53
2021/11/12 11:08:17;;;;;;;;;11.00;10.50;;;;;21.71;36.73;101386.22;4953881;28;51024;-52
2021/11/12 11:10:51;;;;;;;;;13.50;11.75;;;;;21.66;36.65;101384.09;4954027;28;52145;-48
2021/11/12 11:13:19;;;;;;;;;15.00;11.75;;;;;21.63;36.18;101378.19;4952690;28;51113;-49
2021/11/12 11:15:56;;;;;;;;;14.25;11.00;;;;;21.59;36.62;101369.50;4954435;28;51010;-50
2021/11/12 11:18:30;;;;;;;;;9.50;9.00;;;;;21.54;36.67;101383.94;4953581;28;50906;-50
2021/11/12 11:23:51;;;;;;;;;12.25;11.00;;;;;21.44;36.24;101405.59;4954183;28;51144;-52
2021/11/12 11:26:28;;;;;;;;;12.50;11.25;;;;;21.41;36.78;101395.00;4961436;28;51019;-51
2021/11/12 11:28:59;;;;;;;;;12.50;11.75;;;;;21.39;36.42;101393.53;4993421;28;51065;-52
2021/11/12 11:31:27;;;;;;;;;10.75;9.50;;;;;21.35;36.81;101390.34;4992540;28;51790;-51
2021/11/12 11:33:54;;;;;;;;;15.00;11.25;;;;;21.34;36.67;101383.13;4992495;28;51323;-49
2021/11/12 11:36:23;;;;;;;;;11.25;10.00;;;;;21.30;36.45;101391.00;4992454;28;51119;-50
2021/11/12 11:38:51;;;;;;;;;14.25;11.50;;;;;21.27;36.95;101407.97;4992857;28;51231;-47
2021/11/12 11:41:18;;;;;;;;;12.00;11.00;;;;;21.23;36.98;101401.13;4992614;28;51205;-50
2021/11/12 11:43:44;;;;;;;;;14.00;11.50;;;;;21.21;36.55;101375.72;4993081;28;50999;-49
2021/11/12 11:46:19;;;;;;;;;16.25;12.00;;;;;21.19;36.72;101368.72;4993482;28;51163;-51
2021/11/12 11:48:45;;;;;;;;;11.00;11.00;;;;;21.15;36.90;101393.09;4992420;28;51102;-52
2021/11/12 11:51:31;;;;;;;;;10.25;10.25;;;;;21.13;36.54;101414.50;4978934;28;51157;-53
2021/11/12 11:54:10;;;;;;;;;12.00;10.25;;;;;21.09;36.55;101402.22;4973174;28;51456;-52
2021/11/12 11:56:38;;;;;;;;;14.50;11.25;;;;;21.04;36.71;101394.56;4971988;28;50962;-47
2021/11/12 11:59:24;;;;;;;;;10.00;10.00;;;;;21.02;36.56;101387.59;5058011;28;51094;-47
2021/11/12 12:01:53;;;;;;;;;15.50;13.50;;;;;21.00;36.80;101378.69;5075146;27;52031;-51
2021/11/12 12:04:18;;;;;;;;;14.75;13.25;;;;;20.97;36.87;101382.75;5074690;28;51432;-51
2021/11/12 12:07:02;;;;;;;;;12.50;9.00;;;;;20.94;36.76;101374.03;5075468;28;51225;-47
2021/11/12 12:09:58;;;;;;;;;13.50;10.50;;;;;20.91;36.78;101368.97;5074717;27;51450;-50
2021/11/12 12:12:30;;;;;;;;;12.25;12.25;;;;;20.88;36.99;101361.97;5075138;27;51636;-51
2021/11/12 12:15:04;;;;;;;;;12.00;11.25;;;;;20.85;36.98;101362.41;5075292;27;51248;-50
2021/11/12 12:17:32;;;;;;;;;13.00;13.00;;;;;20.84;36.94;101357.09;5075371;28;51177;-52
2021/11/12 13:25:52;;;;;;;;;17.50;14.00;;;;;20.36;37.88;101255.44;4966954;28;51527;-52
2021/11/12 13:28:32;;;;;;;;;14.75;14.25;;;;;20.35;37.63;101254.59;4952602;28;51344;-52
2021/11/12 13:31:08;;;;;;;;;19.00;14.25;;;;;20.34;37.94;101254.81;4953354;28;53072;-53
2021/11/12 13:33:41;;;;;;;;;17.00;15.25;;;;;20.34;37.83;101258.41;4968778;28;51494;-53
2021/11/12 13:36:28;;;;;;;;;14.25;14.25;;;;;20.32;37.80;101257.78;4959157;28;51347;-50
2021/11/12 13:39:19;;;;;;;;;14.00;12.50;;;;;20.31;37.92;101252.47;4952535;28;51025;-53
2021/11/12 13:41:55;;;;;;;;;19.50;16.25;;;;;20.31;37.82;101235.97;4950122;28;52796;-51
2021/11/12 13:44:29;;;;;;;;;17.25;13.75;;;;;20.39;37.55;101233.84;4950929;28;51192;-50
2021/11/12 13:47:04;;;;;;;;;14.25;13.75;;;;;20.50;37.76;101226.03;4963273;28;51642;-52
2021/11/12 13:49:40;;;;;;;;;13.00;12.75;;;;;20.61;37.87;101231.75;4955185;28;51247;-50
2021/11/12 13:52:16;;;;;;;;;12.75;12.50;;;;;20.74;37.52;101225.41;4954423;28;51339;-51
2021/11/12 13:54:49;;;;;;;;;14.75;12.00;;;;;20.87;37.08;101219.00;4951278;28;51144;-53
2021/11/12 13:57:18;;;;;;;;;12.00;11.00;;;;;20.99;37.11;101220.03;4958485;28;51150;-53
2021/11/12 13:59:59;;;;;;;;;17.00;16.50;;;;;21.11;37.31;101215.53;4952233;28;51559;-51
2021/11/12 14:02:26;;;;;;;;;12.50;12.50;;;;;21.23;36.95;101219.28;4956568;28;52230;-52
2021/11/12 14:04:51;;;;;;;;;17.00;14.50;;;;;21.33;37.07;101219.69;4954998;28;51088;-49
2021/11/12 14:07:22;;;;;;;;;11.50;11.50;;;;;21.42;37.04;101214.78;4954405;28;51098;-53
2021/11/12 14:10:09;;;;;;;;;14.50;13.75;;;;;21.54;37.02;101218.53;4964456;28;51244;-51
2021/11/12 14:12:35;;;;;;;;;11.00;9.75;;;;;21.63;36.91;101215.53;4955862;28;51823;-53
2021/11/12 14:15:26;;;;;;;;;15.50;12.50;;;;;21.72;36.84;101205.94;4956925;28;51374;-52
2021/11/12 14:18:17;;;;;;;;;11.00;11.00;;;;;21.81;36.76;101194.41;4954872;28;51271;-52
2021/11/12 14:35:37;;;;;;;;;12.75;10.50;;;;;21.97;36.24;101197.69;4964522;28;51108;-54
2021/11/12 14:38:13;;;;;;;;;13.75;12.75;;;;;21.94;36.56;101198.13;4960580;28;51380;-49
2021/11/12 14:46:34;;;;;;;;;11.75;10.50;;;;;22.02;36.62;101186.84;4954676;28;51634;-53
2021/11/12 14:51:56;;;;;;;;;12.25;12.00;;;;;22.16;36.40;101188.44;4956754;28;51159;-52
2021/11/12 14:54:52;;;;;;;;;14.25;13.50;;;;;22.23;36.34;101183.72;4959365;28;51414;-49
2021/11/12 14:59:49;;;;;;;;;18.25;14.50;;;;;22.28;36.37;101189.38;4951723;28;51378;-50
2021/11/12 15:02:14;;;;;;;;;10.00;10.00;;;;;22.26;36.21;101191.53;4954914;28;51176;-51
2021/11/12 15:04:41;;;;;;;;;13.00;12.00;;;;;22.24;36.38;101198.34;4954269;28;51654;-52
2021/11/12 15:07:07;;;;;;;;;12.25;12.25;;;;;22.22;36.30;101200.50;4954904;28;51353;-50
2021/11/12 15:09:35;;;;;;;;;12.75;10.50;;;;;22.20;35.81;101197.97;4960249;27;51217;-51
2021/11/12 15:12:05;;;;;;;;;13.25;12.00;;;;;22.19;35.93;101201.78;4953313;28;51294;-51
2021/11/12 15:14:55;;;;;;;;;13.00;13.00;;;;;22.23;36.15;101203.03;4955650;28;51235;-52
2021/11/12 15:17:20;;;;;;;;;13.75;11.75;;;;;22.29;35.86;101195.75;4953419;27;51705;-51
2021/11/12 15:19:47;;;;;;;;;14.00;11.50;;;;;22.33;36.47;101186.81;4956661;28;51228;-52
2021/11/12 15:29:42;;;;;;;;;13.25;13.25;;;;;22.42;35.95;101192.91;4953169;28;51283;-51
2021/11/12 15:35:36;;;;;;;;;17.50;12.25;;;;;22.34;36.45;101198.69;4954960;28;51339;-54
2021/11/12 15:45:08;;;;;;;;;14.50;11.00;;;;;22.28;35.70;101194.91;4959727;28;51195;-50
2021/11/12 15:47:41;;;;;;;;;13.25;11.00;;;;;22.34;35.71;101198.69;4953518;28;52780;-49
2021/11/12 15:50:12;;;;;;;;;13.25;12.75;;;;;22.39;36.06;101202.44;4952747;28;51703;-49
2021/11/12 15:52:48;;;;;;;;;11.50;10.25;;;;;22.43;36.03;101197.34;4952918;28;51177;-48
2021/11/12 15:55:26;;;;;;;;;11.00;10.50;;;;;22.46;36.15;101203.25;4957884;28;51454;-51
2021/11/12 16:00:42;;;;;;;;;15.50;12.75;;;;;22.45;36.04;101203.47;4953802;28;51393;-52
2021/11/12 16:11:21;;;;;;;;;11.00;11.00;;;;;22.37;36.20;101221.16;4974151;28;51138;-49
2021/11/12 16:13:51;;;;;;;;;10.25;10.25;;;;;22.41;36.21;101227.94;4952216;28;51204;-52
2021/11/12 16:27:01;;;;;;;;;13.50;13.50;;;;;22.55;35.74;101214.84;4978710;28;51314;-51
2021/11/12 16:29:41;;;;;;;;;15.75;14.25;;;;;22.52;36.07;101212.53;4968377;28;52944;-52
2021/11/12 16:32:11;;;;;;;;;15.50;12.00;;;;;22.48;35.72;101217.66;4956386;28;51385;-51
2021/11/12 16:34:49;;;;;;;;;13.00;13.00;;;;;22.47;35.78;101215.97;4954004;28;51208;-54
2021/11/12 16:37:18;;;;;;;;;13.75;12.50;;;;;22.45;35.70;101211.75;4950976;28;51671;-52
2021/11/12 16:42:30;;;;;;;;;10.50;9.00;;;;;22.51;36.07;101213.63;4953916;28;51151;-52
2021/11/12 16:45:06;;;;;;;;;14.75;14.25;;;;;22.56;35.62;101208.25;4954625;28;51082;-51